CCA112 ZSNJ-ZSPD
Flight info
| Callsign | CCA112 |
|---|---|
| Flight time | N/A |
| Altitude | 15700 |
| Route | ZSNJ/07 K0815S0810 ESB71X ESBAG R343 SASAN SAS93A ZSPD/35R |
| Aircraft | A321/L-B5858/L |
Departure
| Time | 2026-04-28 17:15 |
|---|---|
| Airport | Nanjing Lukou International Airport (ZSNJ) |
Arrival
| Time | N/A |
|---|---|
| Airport | Shanghai Pudong International Airport (ZSPD) |
| Time | Latitude | Longitude | Altitude | Speed | Heading |
|---|---|---|---|---|---|
| 2026-04-28 17:12 | 31.71598 | 118.84895 | 53 ft | 0 kts | 237° |
| 2026-04-28 17:13 | 31.71596 | 118.84891 | 53 ft | 2 kts | 237° |
| 2026-04-28 17:13 | 31.71585 | 118.84869 | 53 ft | 7 kts | 237° |
| 2026-04-28 17:13 | 31.71525 | 118.84832 | 53 ft | 8 kts | 163° |
| 2026-04-28 17:13 | 31.71463 | 118.84873 | 53 ft | 12 kts | 145° |
| 2026-04-28 17:14 | 31.71429 | 118.84963 | 53 ft | 13 kts | 71° |
| 2026-04-28 17:14 | 31.71479 | 118.85056 | 53 ft | 13 kts | 58° |
| 2026-04-28 17:14 | 31.71513 | 118.85122 | 53 ft | 16 kts | 58° |
| 2026-04-28 17:14 | 31.71772 | 118.85602 | 53 ft | 100 kts | 58° |
| 2026-04-28 17:15 | 31.72255 | 118.86499 | 70 ft | 157 kts | 59° |
| 2026-04-28 17:15 | 31.72660 | 118.87224 | 473 ft | 158 kts | 56° |
| 2026-04-28 17:15 | 31.73497 | 118.88500 | 1560 ft | 147 kts | 59° |
| 2026-04-28 17:15 | 31.73838 | 118.89172 | 2049 ft | 144 kts | 63° |
| 2026-04-28 17:16 | 31.74341 | 118.90231 | 2378 ft | 155 kts | 62° |
| 2026-04-28 17:16 | 31.74904 | 118.91380 | 2667 ft | 169 kts | 60° |
| 2026-04-28 17:16 | 31.75537 | 118.92629 | 2964 ft | 184 kts | 60° |
| 2026-04-28 17:16 | 31.76222 | 118.93951 | 3326 ft | 194 kts | 59° |
| 2026-04-28 17:17 | 31.77162 | 118.95743 | 4053 ft | 197 kts | 58° |
| 2026-04-28 17:17 | 31.77882 | 118.97111 | 4615 ft | 199 kts | 57° |
| 2026-04-28 17:17 | 31.78369 | 118.98032 | 4995 ft | 200 kts | 57° |
| 2026-04-28 17:17 | 31.79347 | 118.99886 | 5778 ft | 203 kts | 57° |
| 2026-04-28 17:18 | 31.80056 | 119.01417 | 6032 ft | 226 kts | 64° |
| 2026-04-28 17:18 | 31.80288 | 119.03275 | 6673 ft | 240 kts | 94° |
| 2026-04-28 17:18 | 31.79963 | 119.04530 | 7253 ft | 244 kts | 107° |
| 2026-04-28 17:18 | 31.79270 | 119.06344 | 8026 ft | 247 kts | 110° |
| 2026-04-28 17:19 | 31.78379 | 119.08812 | 8984 ft | 251 kts | 109° |
| 2026-04-28 17:19 | 31.77965 | 119.10097 | 9466 ft | 254 kts | 108° |
| 2026-04-28 17:19 | 31.77386 | 119.12035 | 10182 ft | 256 kts | 108° |
| 2026-04-28 17:19 | 31.76641 | 119.14705 | 11059 ft | 263 kts | 109° |
| 2026-04-28 17:20 | 31.76260 | 119.16087 | 11452 ft | 268 kts | 110° |
| 2026-04-28 17:20 | 31.75689 | 119.18181 | 12035 ft | 275 kts | 111° |
| 2026-04-28 17:20 | 31.74910 | 119.21039 | 12792 ft | 284 kts | 112° |
| 2026-04-28 17:20 | 31.74280 | 119.23302 | 13147 ft | 299 kts | 113° |
| 2026-04-28 17:21 | 31.73836 | 119.24889 | 13350 ft | 311 kts | 113° |
| 2026-04-28 17:21 | 31.72907 | 119.28208 | 13743 ft | 333 kts | 114° |
| 2026-04-28 17:21 | 31.72416 | 119.29970 | 13933 ft | 344 kts | 114° |
| 2026-04-28 17:22 | 31.70597 | 119.36484 | 14543 ft | 380 kts | 113° |
| 2026-04-28 17:22 | 31.70045 | 119.38483 | 14714 ft | 390 kts | 112° |
| 2026-04-28 17:22 | 31.69190 | 119.41567 | 15084 ft | 399 kts | 112° |
| 2026-04-28 17:23 | 31.67171 | 119.48843 | 15870 ft | 406 kts | 112° |
| 2026-04-28 17:23 | 31.66596 | 119.50918 | 15872 ft | 406 kts | 112° |
| 2026-04-28 17:23 | 31.65432 | 119.55106 | 15878 ft | 406 kts | 112° |
| 2026-04-28 17:23 | 31.64549 | 119.58264 | 15881 ft | 406 kts | 112° |
| 2026-04-28 17:24 | 31.63676 | 119.61395 | 15882 ft | 405 kts | 112° |
| 2026-04-28 17:24 | 31.63097 | 119.63466 | 15876 ft | 405 kts | 112° |
| 2026-04-28 17:24 | 31.62170 | 119.67760 | 15876 ft | 409 kts | 104° |
| 2026-04-28 17:24 | 31.61807 | 119.71107 | 15879 ft | 413 kts | 98° |
| 2026-04-28 17:25 | 31.61632 | 119.74426 | 15885 ft | 413 kts | 97° |
| 2026-04-28 17:25 | 31.61360 | 119.81134 | 15885 ft | 412 kts | 97° |
| 2026-04-28 17:25 | 31.61219 | 119.84470 | 15882 ft | 412 kts | 97° |
| 2026-04-28 17:26 | 31.61069 | 119.87843 | 15880 ft | 411 kts | 97° |
| 2026-04-28 17:26 | 31.60919 | 119.91157 | 15887 ft | 412 kts | 97° |
| 2026-04-28 17:26 | 31.60813 | 119.93407 | 15889 ft | 412 kts | 97° |
| 2026-04-28 17:26 | 31.60603 | 119.97852 | 15883 ft | 412 kts | 97° |
| 2026-04-28 17:27 | 31.60445 | 120.01186 | 15884 ft | 412 kts | 97° |
| 2026-04-28 17:27 | 31.60285 | 120.04530 | 15887 ft | 411 kts | 97° |
| 2026-04-28 17:27 | 31.60179 | 120.06767 | 15886 ft | 411 kts | 97° |
| 2026-04-28 17:27 | 31.59963 | 120.11236 | 15885 ft | 412 kts | 97° |
| 2026-04-28 17:28 | 31.59798 | 120.14576 | 15888 ft | 412 kts | 97° |
| 2026-04-28 17:28 | 31.59470 | 120.21255 | 15887 ft | 413 kts | 97° |
| 2026-04-28 17:28 | 31.59359 | 120.23514 | 15882 ft | 412 kts | 97° |
| 2026-04-28 17:29 | 31.59137 | 120.27964 | 15886 ft | 413 kts | 97° |
| 2026-04-28 17:29 | 31.58814 | 120.31285 | 15883 ft | 410 kts | 103° |
| 2026-04-28 17:29 | 31.58188 | 120.34518 | 15878 ft | 407 kts | 110° |
| 2026-04-28 17:30 | 31.56390 | 120.40768 | 15882 ft | 405 kts | 114° |
| 2026-04-28 17:30 | 31.54508 | 120.47003 | 15880 ft | 405 kts | 114° |
| 2026-04-28 17:30 | 31.53581 | 120.50111 | 15880 ft | 405 kts | 113° |
| 2026-04-28 17:31 | 31.52967 | 120.52174 | 15882 ft | 406 kts | 114° |
| 2026-04-28 17:31 | 31.50805 | 120.59461 | 15880 ft | 406 kts | 113° |
| 2026-04-28 17:32 | 31.48954 | 120.65706 | 15878 ft | 407 kts | 114° |
| 2026-04-28 17:32 | 31.48024 | 120.68837 | 15878 ft | 407 kts | 114° |
| 2026-04-28 17:32 | 31.47097 | 120.71952 | 15876 ft | 406 kts | 114° |
| 2026-04-28 17:32 | 31.46478 | 120.74022 | 15877 ft | 407 kts | 114° |
| 2026-04-28 17:33 | 31.45235 | 120.78198 | 15873 ft | 407 kts | 113° |
| 2026-04-28 17:33 | 31.44299 | 120.81288 | 15874 ft | 407 kts | 114° |
| 2026-04-28 17:33 | 31.43321 | 120.84432 | 15873 ft | 407 kts | 113° |
| 2026-04-28 17:33 | 31.43006 | 120.85438 | 15870 ft | 408 kts | 114° |
| 2026-04-28 17:34 | 31.41384 | 120.90632 | 15871 ft | 407 kts | 115° |
| 2026-04-28 17:34 | 31.40313 | 120.93673 | 15871 ft | 404 kts | 121° |
| 2026-04-28 17:34 | 31.38919 | 120.96491 | 15869 ft | 399 kts | 129° |
| 2026-04-28 17:34 | 31.37225 | 120.99081 | 15868 ft | 397 kts | 134° |
| 2026-04-28 17:35 | 31.35474 | 121.01555 | 15868 ft | 396 kts | 135° |
| 2026-04-28 17:35 | 31.33708 | 121.04021 | 15864 ft | 396 kts | 135° |
| 2026-04-28 17:35 | 31.31948 | 121.06486 | 15859 ft | 396 kts | 135° |
| 2026-04-28 17:35 | 31.30186 | 121.08959 | 15862 ft | 397 kts | 135° |
| 2026-04-28 17:36 | 31.28415 | 121.11457 | 15855 ft | 397 kts | 134° |
| 2026-04-28 17:36 | 31.27254 | 121.13093 | 15852 ft | 397 kts | 135° |
| 2026-04-28 17:36 | 31.24918 | 121.16395 | 15855 ft | 397 kts | 134° |
| 2026-04-28 17:36 | 31.23158 | 121.18883 | 15856 ft | 396 kts | 134° |
| 2026-04-28 17:37 | 31.21403 | 121.21360 | 15856 ft | 396 kts | 135° |
| 2026-04-28 17:37 | 31.19639 | 121.23851 | 15859 ft | 397 kts | 134° |
| 2026-04-28 17:37 | 31.17892 | 121.26314 | 15859 ft | 397 kts | 134° |
| 2026-04-28 17:37 | 31.16134 | 121.28795 | 15857 ft | 397 kts | 134° |
| 2026-04-28 17:38 | 31.14355 | 121.31297 | 15863 ft | 397 kts | 134° |
| 2026-04-28 17:38 | 31.12782 | 121.33921 | 15856 ft | 402 kts | 124° |
| 2026-04-28 17:38 | 31.11630 | 121.36939 | 15860 ft | 409 kts | 112° |
| 2026-04-28 17:38 | 31.10843 | 121.40151 | 15865 ft | 412 kts | 108° |
| 2026-04-28 17:39 | 31.10139 | 121.43358 | 15868 ft | 412 kts | 107° |
| 2026-04-28 17:39 | 31.09431 | 121.46594 | 15851 ft | 412 kts | 108° |
| 2026-04-28 17:39 | 31.07985 | 121.53030 | 15846 ft | 411 kts | 109° |
| 2026-04-28 17:40 | 31.07249 | 121.56256 | 15864 ft | 410 kts | 108° |
| 2026-04-28 17:40 | 31.06509 | 121.59468 | 15856 ft | 412 kts | 109° |
| 2026-04-28 17:40 | 31.05766 | 121.62682 | 15846 ft | 410 kts | 108° |
| 2026-04-28 17:40 | 31.05023 | 121.65890 | 15840 ft | 411 kts | 109° |
| 2026-04-28 17:41 | 31.04290 | 121.69119 | 15856 ft | 413 kts | 107° |
| 2026-04-28 17:41 | 31.04117 | 121.72425 | 15822 ft | 419 kts | 84° |
| 2026-04-28 17:41 | 31.04852 | 121.75723 | 15850 ft | 420 kts | 71° |
| 2026-04-28 17:41 | 31.05880 | 121.78925 | 15850 ft | 419 kts | 70° |
| 2026-04-28 17:42 | 31.06908 | 121.82069 | 15845 ft | 420 kts | 71° |
| 2026-04-28 17:42 | 31.07576 | 121.84220 | 15850 ft | 419 kts | 71° |
| 2026-04-28 17:42 | 31.08818 | 121.88475 | 15852 ft | 420 kts | 72° |
| 2026-04-28 17:42 | 31.09732 | 121.91740 | 15850 ft | 420 kts | 73° |
| 2026-04-28 17:43 | 31.10630 | 121.94982 | 15852 ft | 420 kts | 73° |
| 2026-04-28 17:43 | 31.11372 | 121.98225 | 15849 ft | 407 kts | 79° |
| 2026-04-28 17:43 | 31.11897 | 122.01365 | 15849 ft | 389 kts | 82° |
| 2026-04-28 17:43 | 31.12357 | 122.04414 | 15838 ft | 372 kts | 83° |
| 2026-04-28 17:44 | 31.12532 | 122.07327 | 15843 ft | 352 kts | 95° |
| 2026-04-28 17:44 | 31.12448 | 122.09193 | 15844 ft | 340 kts | 99° |
| 2026-04-28 17:44 | 31.12177 | 122.12790 | 15838 ft | 331 kts | 99° |
| 2026-04-28 17:44 | 31.11904 | 122.15436 | 15840 ft | 328 kts | 106° |
| 2026-04-28 17:45 | 31.11308 | 122.17969 | 15840 ft | 324 kts | 114° |
| 2026-04-28 17:45 | 31.10579 | 122.20431 | 15840 ft | 323 kts | 114° |
| 2026-04-28 17:45 | 31.09825 | 122.22900 | 15840 ft | 323 kts | 115° |
| 2026-04-28 17:45 | 31.08925 | 122.25291 | 15836 ft | 316 kts | 127° |
| 2026-04-28 17:46 | 31.07752 | 122.27410 | 15833 ft | 313 kts | 131° |
| 2026-04-28 17:46 | 31.06501 | 122.29486 | 15832 ft | 313 kts | 132° |
| 2026-04-28 17:46 | 31.05243 | 122.31571 | 15833 ft | 314 kts | 131° |
| 2026-04-28 17:46 | 31.04386 | 122.32937 | 15825 ft | 311 kts | 137° |
| 2026-04-28 17:47 | 31.02353 | 122.35220 | 15829 ft | 304 kts | 148° |
| 2026-04-28 17:47 | 31.01254 | 122.36269 | 15827 ft | 303 kts | 148° |
| 2026-04-28 17:47 | 30.99071 | 122.38322 | 15819 ft | 303 kts | 148° |
| 2026-04-28 17:47 | 30.98538 | 122.38826 | 15818 ft | 303 kts | 148° |
| 2026-04-28 17:48 | 30.95622 | 122.40959 | 15820 ft | 292 kts | 163° |
| 2026-04-28 17:48 | 30.94357 | 122.41608 | 15821 ft | 291 kts | 164° |
| 2026-04-28 17:48 | 30.91885 | 122.42824 | 15818 ft | 291 kts | 164° |
| 2026-04-28 17:48 | 30.90004 | 122.43752 | 15822 ft | 291 kts | 165° |
| 2026-04-28 17:49 | 30.88093 | 122.44451 | 15818 ft | 283 kts | 176° |
| 2026-04-28 17:49 | 30.86156 | 122.44795 | 15822 ft | 281 kts | 179° |
| 2026-04-28 17:49 | 30.84218 | 122.45073 | 15818 ft | 281 kts | 180° |
| 2026-04-28 17:49 | 30.82261 | 122.45248 | 15807 ft | 274 kts | 192° |
| 2026-04-28 17:50 | 30.80572 | 122.44481 | 15805 ft | 260 kts | 224° |
| 2026-04-28 17:50 | 30.79821 | 122.43391 | 15813 ft | 258 kts | 245° |
| 2026-04-28 17:50 | 30.79539 | 122.41344 | 15829 ft | 263 kts | 271° |
| 2026-04-28 17:50 | 30.79759 | 122.38528 | 15825 ft | 261 kts | 269° |
| 2026-04-28 17:51 | 30.79820 | 122.36430 | 15820 ft | 262 kts | 267° |
| 2026-04-28 17:51 | 30.79856 | 122.34303 | 15819 ft | 261 kts | 267° |
| 2026-04-28 17:51 | 30.79880 | 122.32208 | 15814 ft | 261 kts | 267° |
| 2026-04-28 17:51 | 30.79901 | 122.30112 | 15818 ft | 262 kts | 267° |
| 2026-04-28 17:52 | 30.79913 | 122.28692 | 15821 ft | 262 kts | 267° |
| 2026-04-28 17:52 | 30.79936 | 122.25874 | 15820 ft | 261 kts | 268° |
| 2026-04-28 17:52 | 30.79970 | 122.21666 | 15819 ft | 261 kts | 266° |
| 2026-04-28 17:53 | 30.79982 | 122.19549 | 15826 ft | 260 kts | 268° |
| 2026-04-28 17:53 | 30.79994 | 122.17459 | 15819 ft | 261 kts | 267° |
| 2026-04-28 17:53 | 30.80008 | 122.15360 | 15816 ft | 261 kts | 267° |
| 2026-04-28 17:53 | 30.80024 | 122.13231 | 15819 ft | 261 kts | 268° |
| 2026-04-28 17:54 | 30.80037 | 122.11128 | 15822 ft | 261 kts | 267° |
| 2026-04-28 17:54 | 30.80073 | 122.09034 | 15812 ft | 259 kts | 271° |
| 2026-04-28 17:54 | 30.80702 | 122.07103 | 15803 ft | 267 kts | 303° |
| 2026-04-28 17:54 | 30.82027 | 122.05541 | 15829 ft | 269 kts | 308° |
| 2026-04-28 17:55 | 30.83352 | 122.04016 | 15829 ft | 269 kts | 307° |
| 2026-04-28 17:55 | 30.84656 | 122.02475 | 15829 ft | 268 kts | 306° |
| 2026-04-28 17:55 | 30.85966 | 122.00910 | 15829 ft | 268 kts | 306° |
| 2026-04-28 17:55 | 30.87246 | 121.99367 | 15831 ft | 267 kts | 306° |
| 2026-04-28 17:56 | 30.88550 | 121.97799 | 15834 ft | 267 kts | 306° |
| 2026-04-28 17:56 | 30.89832 | 121.96249 | 15831 ft | 267 kts | 306° |
| 2026-04-28 17:56 | 30.91118 | 121.94693 | 15834 ft | 268 kts | 307° |
| 2026-04-28 17:56 | 30.92408 | 121.93139 | 15833 ft | 265 kts | 306° |
| 2026-04-28 17:57 | 30.93679 | 121.91600 | 15836 ft | 264 kts | 307° |
| 2026-04-28 17:57 | 30.94961 | 121.90050 | 15840 ft | 264 kts | 306° |
| 2026-04-28 17:57 | 30.96400 | 121.88683 | 15830 ft | 276 kts | 326° |
| 2026-04-28 17:57 | 30.98244 | 121.87929 | 15846 ft | 286 kts | 337° |
| 2026-04-28 17:58 | 31.00177 | 121.87367 | 15848 ft | 286 kts | 337° |
| 2026-04-28 17:58 | 31.01468 | 121.86974 | 15840 ft | 284 kts | 336° |
| 2026-04-28 17:58 | 31.03997 | 121.86120 | 15839 ft | 282 kts | 335° |
| 2026-04-28 17:58 | 31.05873 | 121.85439 | 15849 ft | 283 kts | 334° |
| 2026-04-28 17:59 | 31.07121 | 121.84977 | 15846 ft | 283 kts | 334° |
| 2026-04-28 17:59 | 31.08996 | 121.84271 | 15851 ft | 284 kts | 334° |
| 2026-04-28 17:59 | 31.11507 | 121.83324 | 15854 ft | 283 kts | 333° |
| 2026-04-28 17:59 | 31.13393 | 121.82611 | 15859 ft | 283 kts | 334° |
| 2026-04-28 18:00 | 31.15262 | 121.81895 | 15854 ft | 283 kts | 334° |
| 2026-04-28 18:00 | 31.17131 | 121.81171 | 15853 ft | 283 kts | 333° |
| 2026-04-28 18:00 | 31.18987 | 121.80458 | 15858 ft | 283 kts | 333° |
| 2026-04-28 18:00 | 31.20860 | 121.79745 | 15865 ft | 282 kts | 334° |
| 2026-04-28 18:01 | 31.22725 | 121.79034 | 15865 ft | 282 kts | 334° |
| 2026-04-28 18:01 | 31.24616 | 121.78308 | 15861 ft | 284 kts | 333° |
| 2026-04-28 18:01 | 31.25870 | 121.77830 | 15869 ft | 284 kts | 333° |
| 2026-04-28 18:01 | 31.28376 | 121.76879 | 15857 ft | 285 kts | 334° |
| 2026-04-28 18:02 | 31.30257 | 121.76164 | 15863 ft | 284 kts | 334° |
| 2026-04-28 18:02 | 31.32132 | 121.75452 | 15870 ft | 283 kts | 333° |
| 2026-04-28 18:02 | 31.34007 | 121.74741 | 15866 ft | 284 kts | 333° |
| 2026-04-28 18:02 | 31.35907 | 121.74013 | 15854 ft | 284 kts | 333° |
| 2026-04-28 18:03 | 31.37777 | 121.73296 | 15857 ft | 283 kts | 333° |
| 2026-04-28 18:03 | 31.39660 | 121.72581 | 15858 ft | 283 kts | 334° |
| 2026-04-28 18:03 | 31.40909 | 121.72104 | 15856 ft | 284 kts | 333° |
| 2026-04-28 18:03 | 31.43428 | 121.71152 | 15860 ft | 284 kts | 334° |
| 2026-04-28 18:04 | 31.45301 | 121.70439 | 15867 ft | 284 kts | 333° |
| 2026-04-28 18:04 | 31.46545 | 121.69967 | 15868 ft | 284 kts | 333° |
| 2026-04-28 18:04 | 31.49059 | 121.69009 | 15856 ft | 283 kts | 333° |
| 2026-04-28 18:04 | 31.50930 | 121.68298 | 15862 ft | 283 kts | 334° |
| 2026-04-28 18:05 | 31.52822 | 121.67580 | 15862 ft | 283 kts | 334° |
| 2026-04-28 18:05 | 31.54059 | 121.67108 | 15861 ft | 283 kts | 333° |
| 2026-04-28 18:05 | 31.56566 | 121.66157 | 15863 ft | 284 kts | 333° |
| 2026-04-28 18:05 | 31.58452 | 121.65440 | 15864 ft | 285 kts | 333° |
| 2026-04-28 18:06 | 31.60333 | 121.64724 | 15870 ft | 284 kts | 333° |
| 2026-04-28 18:06 | 31.62228 | 121.64002 | 15873 ft | 284 kts | 333° |
| 2026-04-28 18:06 | 31.64103 | 121.63297 | 15870 ft | 284 kts | 333° |
| 2026-04-28 18:06 | 31.65975 | 121.62595 | 15870 ft | 284 kts | 334° |
| 2026-04-28 18:07 | 31.67855 | 121.61887 | 15868 ft | 284 kts | 333° |
| 2026-04-28 18:07 | 31.69749 | 121.61177 | 15870 ft | 284 kts | 334° |
| 2026-04-28 18:07 | 31.71636 | 121.60461 | 15876 ft | 285 kts | 334° |
| 2026-04-28 18:07 | 31.73517 | 121.59745 | 15879 ft | 284 kts | 333° |
| 2026-04-28 18:08 | 31.75416 | 121.59032 | 15876 ft | 284 kts | 334° |
| 2026-04-28 18:08 | 31.77295 | 121.58324 | 15879 ft | 284 kts | 334° |
| 2026-04-28 18:08 | 31.79179 | 121.57612 | 15872 ft | 284 kts | 333° |
| 2026-04-28 18:08 | 31.81057 | 121.56903 | 15868 ft | 285 kts | 333° |
| 2026-04-28 18:09 | 31.82968 | 121.56187 | 15879 ft | 285 kts | 334° |
| 2026-04-28 18:09 | 31.84842 | 121.55485 | 15876 ft | 283 kts | 334° |
| 2026-04-28 18:09 | 31.86727 | 121.54783 | 15881 ft | 285 kts | 333° |
| 2026-04-28 18:09 | 31.88603 | 121.54075 | 15882 ft | 283 kts | 333° |
| 2026-04-28 18:10 | 31.90486 | 121.53361 | 15885 ft | 284 kts | 334° |
| 2026-04-28 18:10 | 31.92373 | 121.52647 | 15882 ft | 284 kts | 334° |
| 2026-04-28 18:10 | 31.94279 | 121.51928 | 15881 ft | 285 kts | 333° |
| 2026-04-28 18:10 | 31.96165 | 121.51219 | 15880 ft | 284 kts | 333° |
| 2026-04-28 18:11 | 31.98037 | 121.50514 | 15883 ft | 284 kts | 333° |
| 2026-04-28 18:11 | 31.99918 | 121.49804 | 15879 ft | 285 kts | 333° |
| 2026-04-28 18:11 | 32.01804 | 121.49094 | 15884 ft | 284 kts | 334° |
| 2026-04-28 18:11 | 32.03701 | 121.48377 | 15878 ft | 284 kts | 334° |
| 2026-04-28 18:12 | 32.05574 | 121.47665 | 15887 ft | 284 kts | 333° |
| 2026-04-28 18:12 | 32.07449 | 121.46959 | 15887 ft | 283 kts | 333° |
| 2026-04-28 18:12 | 32.09333 | 121.46247 | 15889 ft | 283 kts | 334° |
| 2026-04-28 18:12 | 32.11224 | 121.45531 | 15894 ft | 284 kts | 334° |
| 2026-04-28 18:13 | 32.13102 | 121.44819 | 15891 ft | 285 kts | 334° |
| 2026-04-28 18:13 | 32.14991 | 121.44101 | 15892 ft | 284 kts | 333° |
| 2026-04-28 18:13 | 32.16867 | 121.43392 | 15894 ft | 284 kts | 334° |
| 2026-04-28 18:13 | 32.18744 | 121.42681 | 15887 ft | 283 kts | 334° |
| 2026-04-28 18:14 | 32.20639 | 121.41955 | 15885 ft | 284 kts | 334° |
| 2026-04-28 18:14 | 32.22507 | 121.41239 | 15885 ft | 283 kts | 334° |
| 2026-04-28 18:14 | 32.24388 | 121.40515 | 15891 ft | 284 kts | 333° |
| 2026-04-28 18:14 | 32.26268 | 121.39790 | 15891 ft | 285 kts | 333° |
| 2026-04-28 18:15 | 32.28166 | 121.39068 | 15892 ft | 284 kts | 334° |
| 2026-04-28 18:15 | 32.30044 | 121.38351 | 15893 ft | 284 kts | 333° |
| 2026-04-28 18:15 | 32.31913 | 121.37627 | 15895 ft | 284 kts | 333° |
| 2026-04-28 18:15 | 32.33794 | 121.36897 | 15888 ft | 284 kts | 333° |
| 2026-04-28 18:16 | 32.35686 | 121.36154 | 15892 ft | 284 kts | 333° |
| 2026-04-28 18:16 | 32.37561 | 121.35422 | 15895 ft | 284 kts | 334° |
| 2026-04-28 18:16 | 32.39440 | 121.34690 | 15891 ft | 284 kts | 333° |
| 2026-04-28 18:16 | 32.41316 | 121.33958 | 15890 ft | 285 kts | 333° |
| 2026-04-28 18:17 | 32.43191 | 121.33224 | 15895 ft | 284 kts | 333° |
| 2026-04-28 18:17 | 32.45066 | 121.32488 | 15893 ft | 284 kts | 333° |
| 2026-04-28 18:17 | 32.46945 | 121.31752 | 15892 ft | 284 kts | 333° |
| 2026-04-28 18:17 | 32.48825 | 121.31016 | 15896 ft | 285 kts | 333° |
| 2026-04-28 18:18 | 32.50699 | 121.30276 | 15895 ft | 283 kts | 333° |
| 2026-04-28 18:18 | 32.52583 | 121.29533 | 15890 ft | 284 kts | 333° |
| 2026-04-28 18:18 | 32.54445 | 121.28796 | 15893 ft | 285 kts | 333° |
| 2026-04-28 18:18 | 32.55692 | 121.28302 | 15895 ft | 284 kts | 333° |
| 2026-04-28 18:19 | 32.58181 | 121.27303 | 15897 ft | 283 kts | 332° |
| 2026-04-28 18:19 | 32.60066 | 121.26557 | 15894 ft | 284 kts | 333° |
| 2026-04-28 18:19 | 32.61929 | 121.25814 | 15896 ft | 283 kts | 333° |
| 2026-04-28 18:19 | 32.63788 | 121.25069 | 15894 ft | 283 kts | 333° |
| 2026-04-28 18:20 | 32.65657 | 121.24326 | 15896 ft | 283 kts | 333° |
| 2026-04-28 18:20 | 32.67553 | 121.23567 | 15897 ft | 284 kts | 333° |
| 2026-04-28 18:20 | 32.69408 | 121.22826 | 15895 ft | 283 kts | 333° |
| 2026-04-28 18:20 | 32.71281 | 121.22079 | 15896 ft | 283 kts | 333° |
| 2026-04-28 18:21 | 32.73134 | 121.21341 | 15892 ft | 282 kts | 333° |
| 2026-04-28 18:21 | 32.74999 | 121.20593 | 15897 ft | 283 kts | 333° |
| 2026-04-28 18:21 | 32.76883 | 121.19836 | 15895 ft | 283 kts | 333° |
| 2026-04-28 18:21 | 32.78741 | 121.19094 | 15894 ft | 283 kts | 333° |
| 2026-04-28 18:22 | 32.80624 | 121.18340 | 15895 ft | 283 kts | 332° |
| 2026-04-28 18:22 | 32.82476 | 121.17593 | 15898 ft | 283 kts | 333° |
| 2026-04-28 18:22 | 32.84354 | 121.16836 | 15895 ft | 283 kts | 333° |
| 2026-04-28 18:22 | 32.86211 | 121.16088 | 15897 ft | 283 kts | 333° |
| 2026-04-28 18:23 | 32.88060 | 121.15338 | 15899 ft | 283 kts | 333° |
| 2026-04-28 18:23 | 32.89938 | 121.14568 | 15896 ft | 283 kts | 333° |
| 2026-04-28 18:23 | 32.91804 | 121.13807 | 15896 ft | 283 kts | 333° |
| 2026-04-28 18:23 | 32.93656 | 121.13049 | 15894 ft | 283 kts | 333° |
| 2026-04-28 18:24 | 32.95505 | 121.12289 | 15897 ft | 282 kts | 333° |
| 2026-04-28 18:24 | 32.96128 | 121.12032 | 15898 ft | 282 kts | 333° |
| 2026-04-28 18:24 | 32.99240 | 121.10745 | 15897 ft | 283 kts | 333° |
| 2026-04-28 18:24 | 33.01085 | 121.09984 | 15900 ft | 283 kts | 333° |
| 2026-04-28 18:25 | 33.02948 | 121.09211 | 15899 ft | 282 kts | 333° |
| 2026-04-28 18:25 | 33.04812 | 121.08433 | 15896 ft | 282 kts | 333° |
| 2026-04-28 18:25 | 33.06665 | 121.07658 | 15903 ft | 284 kts | 333° |
| 2026-04-28 18:26 | 33.10355 | 121.06111 | 15897 ft | 281 kts | 333° |
| 2026-04-28 18:26 | 33.12208 | 121.05334 | 15895 ft | 282 kts | 333° |
| 2026-04-28 18:26 | 33.14074 | 121.04566 | 15898 ft | 281 kts | 333° |
| 2026-04-28 18:26 | 33.15918 | 121.03803 | 15898 ft | 281 kts | 333° |
| 2026-04-28 18:27 | 33.17755 | 121.03039 | 15898 ft | 280 kts | 333° |
| 2026-04-28 18:27 | 33.19608 | 121.02274 | 15899 ft | 280 kts | 333° |
| 2026-04-28 18:27 | 33.21434 | 121.01516 | 15898 ft | 280 kts | 333° |
| 2026-04-28 18:27 | 33.23283 | 121.00744 | 15898 ft | 281 kts | 333° |
| 2026-04-28 18:28 | 33.25116 | 120.99977 | 15899 ft | 280 kts | 333° |
| 2026-04-28 18:28 | 33.26946 | 120.99209 | 15897 ft | 279 kts | 333° |
| 2026-04-28 18:28 | 33.28794 | 120.98427 | 15899 ft | 280 kts | 333° |
| 2026-04-28 18:28 | 33.30624 | 120.97650 | 15902 ft | 280 kts | 333° |
| 2026-04-28 18:29 | 33.32466 | 120.96876 | 15896 ft | 278 kts | 333° |
| 2026-04-28 18:29 | 33.34275 | 120.96114 | 15896 ft | 279 kts | 333° |
| 2026-04-28 18:29 | 33.36116 | 120.95337 | 15901 ft | 279 kts | 333° |
| 2026-04-28 18:29 | 33.37927 | 120.94566 | 15900 ft | 278 kts | 333° |
| 2026-04-28 18:30 | 33.39765 | 120.93786 | 15900 ft | 277 kts | 333° |
| 2026-04-28 18:30 | 33.40372 | 120.93527 | 15901 ft | 277 kts | 333° |
| 2026-04-28 18:30 | 33.43389 | 120.92251 | 15899 ft | 276 kts | 333° |
| 2026-04-28 18:30 | 33.45196 | 120.91489 | 15898 ft | 277 kts | 333° |
| 2026-04-28 18:31 | 33.47025 | 120.90717 | 15899 ft | 276 kts | 333° |
| 2026-04-28 18:31 | 33.48827 | 120.89951 | 15900 ft | 276 kts | 333° |
| 2026-04-28 18:31 | 33.50657 | 120.89170 | 15898 ft | 276 kts | 333° |
| 2026-04-28 18:31 | 33.52450 | 120.88404 | 15897 ft | 276 kts | 333° |
| 2026-04-28 18:32 | 33.54269 | 120.87631 | 15898 ft | 275 kts | 333° |
| 2026-04-28 18:32 | 33.56068 | 120.86861 | 15905 ft | 275 kts | 333° |
| 2026-04-28 18:32 | 33.57858 | 120.86095 | 15898 ft | 274 kts | 333° |
| 2026-04-28 18:32 | 33.59664 | 120.85313 | 15902 ft | 274 kts | 333° |
| 2026-04-28 18:33 | 33.61442 | 120.84536 | 15901 ft | 274 kts | 333° |
| 2026-04-28 18:33 | 33.63244 | 120.83756 | 15896 ft | 273 kts | 333° |
| 2026-04-28 18:33 | 33.65021 | 120.82989 | 15898 ft | 273 kts | 333° |
| 2026-04-28 18:33 | 33.66816 | 120.82208 | 15899 ft | 273 kts | 333° |
| 2026-04-28 18:34 | 33.68611 | 120.81423 | 15899 ft | 273 kts | 333° |
| 2026-04-28 18:34 | 33.70378 | 120.80650 | 15900 ft | 272 kts | 333° |
| 2026-04-28 18:34 | 33.72154 | 120.79877 | 15899 ft | 273 kts | 333° |
| 2026-04-28 18:34 | 33.73951 | 120.79088 | 15903 ft | 273 kts | 333° |
| 2026-04-28 18:35 | 33.75729 | 120.78310 | 15898 ft | 272 kts | 333° |
| 2026-04-28 18:35 | 33.77517 | 120.77528 | 15899 ft | 272 kts | 333° |
| 2026-04-28 18:35 | 33.79293 | 120.76751 | 15895 ft | 272 kts | 333° |
| 2026-04-28 18:35 | 33.81053 | 120.75978 | 15899 ft | 271 kts | 333° |
| 2026-04-28 18:36 | 33.82839 | 120.75190 | 15898 ft | 271 kts | 333° |
| 2026-04-28 18:36 | 33.84595 | 120.74410 | 15896 ft | 271 kts | 333° |
| 2026-04-28 18:36 | 33.86356 | 120.73634 | 15901 ft | 271 kts | 333° |
| 2026-04-28 18:36 | 33.88135 | 120.72841 | 15899 ft | 271 kts | 333° |
| 2026-04-28 18:37 | 33.89884 | 120.72057 | 15900 ft | 269 kts | 333° |
| 2026-04-28 18:37 | 33.91652 | 120.71268 | 15900 ft | 269 kts | 333° |
| 2026-04-28 18:37 | 33.93397 | 120.70486 | 15898 ft | 269 kts | 333° |
| 2026-04-28 18:37 | 33.95167 | 120.69689 | 15898 ft | 269 kts | 333° |
| 2026-04-28 18:38 | 33.96906 | 120.68908 | 15899 ft | 269 kts | 333° |
| 2026-04-28 18:38 | 33.98670 | 120.68111 | 15900 ft | 269 kts | 333° |
| 2026-04-28 18:38 | 34.00411 | 120.67322 | 15897 ft | 267 kts | 333° |
| 2026-04-28 18:38 | 34.02164 | 120.66527 | 15895 ft | 267 kts | 333° |
| 2026-04-28 18:39 | 34.03892 | 120.65744 | 15897 ft | 268 kts | 333° |
| 2026-04-28 18:39 | 34.05644 | 120.64946 | 15900 ft | 268 kts | 333° |
| 2026-04-28 18:39 | 34.07377 | 120.64153 | 15900 ft | 266 kts | 333° |
| 2026-04-28 18:39 | 34.09121 | 120.63357 | 15900 ft | 267 kts | 333° |
| 2026-04-28 18:40 | 34.10853 | 120.62566 | 15899 ft | 266 kts | 333° |
| 2026-04-28 18:40 | 34.12596 | 120.61775 | 15892 ft | 265 kts | 333° |
| 2026-04-28 18:40 | 34.14317 | 120.60995 | 15896 ft | 265 kts | 334° |
| 2026-04-28 18:40 | 34.16032 | 120.60213 | 15897 ft | 265 kts | 333° |
| 2026-04-28 18:41 | 34.17752 | 120.59425 | 15898 ft | 265 kts | 333° |
| 2026-04-28 18:41 | 34.19493 | 120.58625 | 15900 ft | 264 kts | 333° |
| 2026-04-28 18:41 | 34.21206 | 120.57838 | 15898 ft | 264 kts | 333° |
| 2026-04-28 18:41 | 34.22932 | 120.57050 | 15897 ft | 263 kts | 333° |
| 2026-04-28 18:42 | 34.24630 | 120.56267 | 15897 ft | 264 kts | 333° |
| 2026-04-28 18:42 | 34.26351 | 120.55468 | 15889 ft | 264 kts | 333° |
| 2026-04-28 18:42 | 34.28063 | 120.54684 | 15893 ft | 263 kts | 333° |
| 2026-04-28 18:42 | 34.29769 | 120.53902 | 15894 ft | 263 kts | 333° |
| 2026-04-28 18:43 | 34.31489 | 120.53110 | 15898 ft | 264 kts | 333° |
| 2026-04-28 18:43 | 34.33213 | 120.52313 | 15895 ft | 263 kts | 333° |
| 2026-04-28 18:43 | 34.34903 | 120.51534 | 15892 ft | 262 kts | 333° |
| 2026-04-28 18:43 | 34.36607 | 120.50751 | 15894 ft | 257 kts | 333° |
| 2026-04-28 18:44 | 34.38247 | 120.50007 | 15891 ft | 244 kts | 333° |
| 2026-04-28 18:44 | 34.41163 | 120.48708 | 15621 ft | 205 kts | 331° |
| 2026-04-28 18:44 | 34.42488 | 120.48013 | 14738 ft | 214 kts | 330° |
| 2026-04-28 18:45 | 34.42894 | 120.47792 | 14460 ft | 216 kts | 330° |